Time;durP1;ratioP1;P1;durP2;ratioP2;P2;SDS_P1;SDS_P2;PMS_P1;PMS_P2;Temp;Humidity;BMP_temperature;BMP_pressure;BME280_temperature;BME280_humidity;BME280_pressure;Samples;Min_cycle;Max_cycle;Signal;HPM_P1;HPM_P2
2023/09/26 00:01:02;;;;;;;5.22;3.38;;;;;;;;;;4998672;28;20840;-62
2023/09/26 00:04:22;;;;;;;;;;;;;;;;;;;;;
2023/09/26 00:11:12;;;;;;;6.43;4.07;;;;;;;;;;4956425;28;20415;-62
2023/09/26 00:17:42;;;;;;;3.25;3.05;;;;;;;;;;4921938;29;20432;-62
2023/09/26 00:20:59;;;;;;;5.77;3.70;;;;;;;;;;4931762;28;20462;-62
2023/09/26 00:23:56;;;;;;;5.40;3.90;;;;;;;;;;4946830;28;21148;-62
2023/09/26 00:27:00;;;;;;;5.30;4.03;;;;;;;;;;4927790;28;20425;-62
2023/09/26 00:30:07;;;;;;;4.05;3.65;;;;;;;;;;4948478;28;20821;-62
2023/09/26 00:36:37;;;;;;;5.13;3.55;;;;;;;;;;4934080;28;20434;-63
2023/09/26 00:42:47;;;;;;;4.30;3.90;;;;;;;;;;4945965;28;21034;-63
2023/09/26 00:46:19;;;;;;;5.68;3.72;;;;;;;;;;4916702;28;20809;-63
2023/09/26 00:49:35;;;;;;;5.32;3.75;;;;;;;;;;4917248;29;20421;-63
2023/09/26 00:55:53;;;;;;;5.03;3.80;;;;;;;;;;4964169;28;20474;-61
2023/09/26 01:06:07;;;;;;;4.00;3.60;;;;;;;;;;4955967;28;20471;-61
2023/09/26 01:12:26;;;;;;;3.70;3.40;;;;;;;;;;4925572;29;20435;-61
2023/09/26 01:15:43;;;;;;;5.25;4.28;;;;;;;;;;4946749;28;20523;-62
2023/09/26 01:19:22;;;;;;;5.63;4.40;;;;;;;;;;4931915;28;20925;-61
2023/09/26 01:25:26;;;;;;;4.10;3.60;;;;;;;;;;4959426;28;20419;-61
2023/09/26 01:32:07;;;;;;;4.40;3.75;;;;;;;;;;4973925;28;20440;-61
2023/09/26 03:25:13;;;;;;;4.85;4.32;;;;;;;;;;4926003;29;20528;-74
2023/09/26 03:27:41;;;;;;;6.50;4.35;;;;;;;;;;4912177;29;20443;-75
2023/09/26 03:30:09;;;;;;;5.00;4.50;;;;;;;;;;4926324;29;20438;-74
2023/09/26 03:32:37;;;;;;;6.57;4.70;;;;;;;;;;4924535;29;20520;-74
2023/09/26 03:35:05;;;;;;;5.15;4.65;;;;;;;;;;4927229;29;20915;-74
2023/09/26 03:37:36;;;;;;;6.25;4.60;;;;;;;;;;4921013;29;21247;-74
2023/09/26 03:40:04;;;;;;;6.00;4.28;;;;;;;;;;4922643;29;20429;-74
2023/09/26 03:42:31;;;;;;;4.53;3.97;;;;;;;;;;4928521;29;21089;-75
2023/09/26 03:44:58;;;;;;;5.53;4.33;;;;;;;;;;4922898;29;20480;-74
2023/09/26 03:47:26;;;;;;;5.22;4.72;;;;;;;;;;4924607;29;20474;-74
2023/09/26 03:49:53;;;;;;;5.70;5.10;;;;;;;;;;4925517;29;20506;-74
2023/09/26 03:52:21;;;;;;;5.93;4.32;;;;;;;;;;4920959;29;20469;-74
2023/09/26 03:54:49;;;;;;;9.20;5.10;;;;;;;;;;4904984;29;20797;-74
2023/09/26 03:57:22;;;;;;;6.13;4.73;;;;;;;;;;4930625;29;20514;-74
2023/09/26 03:59:49;;;;;;;8.55;5.32;;;;;;;;;;4927607;29;20446;-74
2023/09/26 04:02:17;;;;;;;5.63;4.90;;;;;;;;;;4928239;29;20542;-75
2023/09/26 04:04:44;;;;;;;5.10;4.30;;;;;;;;;;4912678;29;20538;-74
2023/09/26 04:07:12;;;;;;;15.45;14.20;;;;;;;;;;4908159;29;20453;-74
2023/09/26 04:09:39;;;;;;;11.63;10.82;;;;;;;;;;4925026;29;20528;-75
2023/09/26 04:12:11;;;;;;;86.78;80.75;;;;;;;;;;4928229;29;20447;-74
2023/09/26 04:14:39;;;;;;;4.80;4.30;;;;;;;;;;4923180;29;20447;-74
2023/09/26 04:17:09;;;;;;;7.22;4.45;;;;;;;;;;4923412;29;20440;-74
2023/09/26 04:19:36;;;;;;;4.80;4.30;;;;;;;;;;4920605;29;20950;-74
2023/09/26 04:22:04;;;;;;;4.82;4.32;;;;;;;;;;4927173;29;20921;-74
2023/09/26 04:24:32;;;;;;;6.15;4.22;;;;;;;;;;4921314;29;20472;-74
2023/09/26 04:26:59;;;;;;;5.18;4.30;;;;;;;;;;4920198;29;20443;-74
2023/09/26 04:29:27;;;;;;;4.53;4.10;;;;;;;;;;4932656;29;20507;-74
2023/09/26 04:31:57;;;;;;;6.90;4.70;;;;;;;;;;4912760;29;20466;-75
2023/09/26 04:34:32;;;;;;;5.40;4.22;;;;;;;;;;4924289;29;20458;-74
2023/09/26 04:37:02;;;;;;;7.10;4.45;;;;;;;;;;4909551;29;20443;-74
2023/09/26 04:39:29;;;;;;;4.85;4.35;;;;;;;;;;4929920;29;21011;-74
2023/09/26 04:41:56;;;;;;;6.45;4.35;;;;;;;;;;4923843;29;20535;-74
2023/09/26 04:44:27;;;;;;;8.68;4.60;;;;;;;;;;4921771;29;20497;-74
2023/09/26 04:46:54;;;;;;;6.55;4.65;;;;;;;;;;4929691;29;20466;-74
2023/09/26 04:49:21;;;;;;;5.43;4.47;;;;;;;;;;4921685;29;20503;-74
2023/09/26 04:51:51;;;;;;;5.35;4.10;;;;;;;;;;4918577;29;20556;-74
2023/09/26 04:54:18;;;;;;;7.47;4.77;;;;;;;;;;4926636;29;20468;-74
2023/09/26 04:56:46;;;;;;;5.03;4.53;;;;;;;;;;4903201;29;20436;-75
2023/09/26 04:59:16;;;;;;;5.43;4.85;;;;;;;;;;4921551;29;20497;-74
2023/09/26 05:01:45;;;;;;;5.70;4.93;;;;;;;;;;4920989;29;20462;-74
2023/09/26 05:04:17;;;;;;;6.45;4.93;;;;;;;;;;4905118;29;20449;-74
2023/09/26 05:06:44;;;;;;;6.15;4.80;;;;;;;;;;4925262;29;20446;-74
2023/09/26 05:09:11;;;;;;;5.03;4.50;;;;;;;;;;4928525;29;21136;-74
2023/09/26 05:11:38;;;;;;;5.22;4.47;;;;;;;;;;4920853;29;20449;-74
2023/09/26 05:14:08;;;;;;;7.60;4.82;;;;;;;;;;4922702;29;20501;-74
2023/09/26 05:16:35;;;;;;;6.60;4.82;;;;;;;;;;4925990;29;20460;-74
2023/09/26 05:19:03;;;;;;;5.30;4.70;;;;;;;;;;4926242;29;20435;-74
2023/09/26 05:21:31;;;;;;;6.25;4.65;;;;;;;;;;4926000;29;20977;-74
2023/09/26 05:23:58;;;;;;;6.80;4.70;;;;;;;;;;4922995;29;20435;-74
2023/09/26 05:26:25;;;;;;;5.78;5.03;;;;;;;;;;4926378;29;20770;-72
2023/09/26 05:28:52;;;;;;;5.32;4.82;;;;;;;;;;4913895;29;20510;-71
2023/09/26 05:31:19;;;;;;;5.20;4.70;;;;;;;;;;4922990;29;20451;-72
2023/09/26 05:33:46;;;;;;;7.88;5.20;;;;;;;;;;4930524;29;20471;-71
2023/09/26 05:36:14;;;;;;;7.07;5.38;;;;;;;;;;4903352;29;20527;-72
2023/09/26 05:38:41;;;;;;;6.38;5.57;;;;;;;;;;4923214;29;20435;-71
2023/09/26 05:41:08;;;;;;;7.90;5.83;;;;;;;;;;4921021;29;20510;-72
2023/09/26 05:43:37;;;;;;;7.85;5.82;;;;;;;;;;4921320;29;20502;-72
2023/09/26 05:46:05;;;;;;;7.95;5.75;;;;;;;;;;4916797;29;20524;-71
2023/09/26 05:48:32;;;;;;;8.52;5.40;;;;;;;;;;4919254;29;20526;-71
2023/09/26 05:51:00;;;;;;;6.72;5.82;;;;;;;;;;4920843;29;20494;-72
2023/09/26 05:53:27;;;;;;;7.20;5.35;;;;;;;;;;4922575;29;20537;-71
2023/09/26 05:55:54;;;;;;;9.18;6.10;;;;;;;;;;4922943;29;20443;-72
2023/09/26 05:58:21;;;;;;;7.22;5.75;;;;;;;;;;4928280;29;20518;-72
2023/09/26 06:00:49;;;;;;;5.87;5.17;;;;;;;;;;4927203;29;20494;-72
2023/09/26 06:03:16;;;;;;;7.15;5.47;;;;;;;;;;4920675;29;20441;-71
2023/09/26 06:05:44;;;;;;;6.43;5.20;;;;;;;;;;4900771;29;20501;-71
2023/09/26 06:08:11;;;;;;;5.72;5.22;;;;;;;;;;4916299;29;20488;-71
2023/09/26 06:10:39;;;;;;;5.90;5.05;;;;;;;;;;4925361;29;21008;-71
2023/09/26 06:13:06;;;;;;;5.63;4.85;;;;;;;;;;4917737;29;20567;-71
2023/09/26 06:15:34;;;;;;;4.53;4.22;;;;;;;;;;4923200;29;20454;-71
2023/09/26 06:18:08;;;;;;;3.85;3.53;;;;;;;;;;4928490;29;20436;-72
2023/09/26 06:20:40;;;;;;;4.32;3.92;;;;;;;;;;4909953;29;20435;-71
2023/09/26 06:23:07;;;;;;;3.70;3.40;;;;;;;;;;4920482;29;20444;-71
2023/09/26 06:25:34;;;;;;;5.43;3.57;;;;;;;;;;4912409;29;20806;-72
2023/09/26 06:28:12;;;;;;;3.80;3.50;;;;;;;;;;4926999;29;20449;-72
2023/09/26 06:30:39;;;;;;;5.10;3.92;;;;;;;;;;4917549;29;20496;-72
2023/09/26 06:33:06;;;;;;;4.75;3.67;;;;;;;;;;4925636;29;20447;-72
2023/09/26 06:35:34;;;;;;;4.88;3.67;;;;;;;;;;4923296;29;20439;-72
2023/09/26 06:38:01;;;;;;;4.55;3.63;;;;;;;;;;4925589;29;20470;-72
2023/09/26 06:40:31;;;;;;;4.53;3.90;;;;;;;;;;4916168;29;20838;-72
2023/09/26 06:43:01;;;;;;;3.80;3.50;;;;;;;;;;4917895;29;20949;-72
2023/09/26 06:45:31;;;;;;;3.80;3.50;;;;;;;;;;4922021;29;20502;-72
2023/09/26 06:47:58;;;;;;;4.20;3.80;;;;;;;;;;4915415;29;20444;-72
2023/09/26 06:50:25;;;;;;;3.87;3.57;;;;;;;;;;4927910;29;20925;-73
2023/09/26 06:52:53;;;;;;;4.20;3.58;;;;;;;;;;4916979;29;20441;-72
2023/09/26 06:55:20;;;;;;;3.50;3.30;;;;;;;;;;4927874;29;20443;-72
2023/09/26 06:57:47;;;;;;;3.50;3.20;;;;;;;;;;4918778;29;20449;-72
2023/09/26 07:00:16;;;;;;;3.60;3.10;;;;;;;;;;4916470;29;20446;-72
2023/09/26 07:02:44;;;;;;;3.70;3.30;;;;;;;;;;4920035;29;20519;-72
2023/09/26 07:05:11;;;;;;;3.70;3.40;;;;;;;;;;4921452;29;20815;-72
2023/09/26 07:07:42;;;;;;;3.38;2.95;;;;;;;;;;4926576;29;20692;-72
2023/09/26 07:10:10;;;;;;;4.20;2.80;;;;;;;;;;4922540;29;20497;-73
2023/09/26 07:12:38;;;;;;;3.20;2.90;;;;;;;;;;4922354;29;20494;-73
2023/09/26 07:15:05;;;;;;;3.50;3.15;;;;;;;;;;4917263;29;20994;-71
2023/09/26 07:17:32;;;;;;;3.20;3.00;;;;;;;;;;4925884;29;20449;-72
2023/09/26 07:20:04;;;;;;;4.05;2.80;;;;;;;;;;4918747;29;20443;-72
2023/09/26 07:22:32;;;;;;;3.00;2.80;;;;;;;;;;4918124;29;20444;-72
2023/09/26 07:25:04;;;;;;;4.25;3.05;;;;;;;;;;4917602;29;20435;-72
2023/09/26 07:27:31;;;;;;;3.00;2.70;;;;;;;;;;4920407;29;20482;-72
2023/09/26 07:29:58;;;;;;;3.10;2.80;;;;;;;;;;4925453;29;20467;-72
2023/09/26 07:32:25;;;;;;;2.73;2.53;;;;;;;;;;4916472;29;21451;-72
2023/09/26 07:34:52;;;;;;;3.40;3.10;;;;;;;;;;4920267;29;20450;-72
2023/09/26 07:37:21;;;;;;;4.53;2.90;;;;;;;;;;4907318;29;20436;-72
2023/09/26 07:39:51;;;;;;;4.20;2.90;;;;;;;;;;4927181;29;20451;-73
2023/09/26 07:42:21;;;;;;;2.95;2.72;;;;;;;;;;4903778;29;20925;-72
2023/09/26 07:44:49;;;;;;;2.63;2.53;;;;;;;;;;4927816;29;20447;-72
2023/09/26 07:47:16;;;;;;;3.22;2.58;;;;;;;;;;4916975;29;20496;-72
2023/09/26 07:49:43;;;;;;;3.28;2.75;;;;;;;;;;4926915;29;20535;-73
2023/09/26 07:52:10;;;;;;;4.30;2.60;;;;;;;;;;4930981;29;20447;-73
2023/09/26 07:54:37;;;;;;;4.15;2.33;;;;;;;;;;4932515;29;20446;-71
2023/09/26 07:57:07;;;;;;;2.85;2.65;;;;;;;;;;4917961;29;20525;-72
2023/09/26 07:59:37;;;;;;;2.60;2.40;;;;;;;;;;4926548;29;20517;-73
2023/09/26 08:02:04;;;;;;;2.75;2.50;;;;;;;;;;4925734;29;20694;-72
2023/09/26 08:04:35;;;;;;;2.63;2.35;;;;;;;;;;4921857;29;20942;-72
2023/09/26 08:07:02;;;;;;;2.85;2.25;;;;;;;;;;4925958;29;20908;-73
2023/09/26 08:09:29;;;;;;;3.50;2.40;;;;;;;;;;4917936;29;20435;-72
2023/09/26 08:11:56;;;;;;;2.17;2.00;;;;;;;;;;4922486;29;21040;-73
2023/09/26 08:14:23;;;;;;;2.45;1.98;;;;;;;;;;4923427;29;20445;-73
2023/09/26 08:16:51;;;;;;;3.50;2.22;;;;;;;;;;4925020;29;20475;-73
2023/09/26 08:19:24;;;;;;;3.42;1.80;;;;;;;;;;4927103;29;20435;-73
2023/09/26 08:21:54;;;;;;;2.83;1.95;;;;;;;;;;4916417;29;20441;-72
2023/09/26 08:24:21;;;;;;;3.45;2.17;;;;;;;;;;4929259;29;20534;-73
2023/09/26 08:26:49;;;;;;;4.03;1.80;;;;;;;;;;4926060;29;20439;-73
2023/09/26 08:29:19;;;;;;;2.17;2.00;;;;;;;;;;4930792;29;20447;-73
2023/09/26 08:31:46;;;;;;;7.78;2.47;;;;;;;;;;4918775;29;20444;-73
2023/09/26 08:34:14;;;;;;;2.22;2.00;;;;;;;;;;4927456;29;20443;-73
2023/09/26 08:36:41;;;;;;;2.30;2.10;;;;;;;;;;4924032;29;20439;-73
2023/09/26 08:39:08;;;;;;;2.53;2.00;;;;;;;;;;4920115;29;20520;-73
2023/09/26 08:41:38;;;;;;;2.10;1.97;;;;;;;;;;4928650;29;20514;-73
2023/09/26 08:44:05;;;;;;;1.87;1.70;;;;;;;;;;4911283;29;20522;-73
2023/09/26 08:46:33;;;;;;;2.40;1.70;;;;;;;;;;4921564;29;20524;-74
2023/09/26 08:49:06;;;;;;;1.90;1.80;;;;;;;;;;4927579;29;20439;-73
2023/09/26 08:51:34;;;;;;;2.25;1.95;;;;;;;;;;4916909;29;20614;-73
2023/09/26 08:54:01;;;;;;;1.92;1.83;;;;;;;;;;4922191;29;21130;-73
2023/09/26 08:56:28;;;;;;;2.97;1.90;;;;;;;;;;4924428;29;20739;-73
2023/09/26 08:58:55;;;;;;;2.13;2.00;;;;;;;;;;4920343;29;20442;-73
2023/09/26 09:01:23;;;;;;;2.20;2.00;;;;;;;;;;4924237;29;20437;-73
2023/09/26 09:03:50;;;;;;;2.17;1.98;;;;;;;;;;4909751;29;20447;-73
2023/09/26 09:06:17;;;;;;;373.95;340.73;;;;;;;;;;4927775;29;20528;-72
2023/09/26 09:08:45;;;;;;;590.05;538.13;;;;;;;;;;4921355;29;20594;-74
2023/09/26 09:11:14;;;;;;;307.63;280.25;;;;;;;;;;4922777;29;20455;-73
2023/09/26 09:13:42;;;;;;;295.93;269.13;;;;;;;;;;4927645;29;20445;-72
2023/09/26 09:16:17;;;;;;;845.20;763.78;;;;;;;;;;4919897;29;20444;-73
2023/09/26 09:18:50;;;;;;;894.35;806.88;;;;;;;;;;4920432;29;20449;-73
2023/09/26 09:21:21;;;;;;;861.00;777.53;;;;;;;;;;4920036;29;20494;-73
2023/09/26 09:23:49;;;;;;;580.47;526.03;;;;;;;;;;4920488;29;20448;-73
2023/09/26 09:26:17;;;;;;;869.57;791.90;;;;;;;;;;4919163;29;20452;-73
2023/09/26 09:28:44;;;;;;;839.05;759.10;;;;;;;;;;4914151;29;21143;-73
2023/09/26 09:31:13;;;;;;;890.05;803.50;;;;;;;;;;4903472;29;20502;-75
2023/09/26 09:33:44;;;;;;;908.90;811.97;;;;;;;;;;4915393;29;20528;-74
2023/09/26 09:36:12;;;;;;;832.78;761.17;;;;;;;;;;4923634;29;20500;-74
2023/09/26 09:38:40;;;;;;;911.85;815.22;;;;;;;;;;4922169;29;20983;-73
2023/09/26 09:41:10;;;;;;;914.13;816.38;;;;;;;;;;4923055;29;20450;-73
2023/09/26 09:43:38;;;;;;;913.15;812.72;;;;;;;;;;4914285;29;20439;-74
2023/09/26 09:46:08;;;;;;;976.53;813.80;;;;;;;;;;4925295;29;20442;-73
2023/09/26 09:48:46;;;;;;;975.95;812.03;;;;;;;;;;4904661;29;20843;-74
2023/09/26 09:51:14;;;;;;;980.75;813.00;;;;;;;;;;4924123;29;20447;-74
2023/09/26 09:53:48;;;;;;;981.67;813.95;;;;;;;;;;4920113;29;20452;-73
2023/09/26 09:56:19;;;;;;;989.30;817.95;;;;;;;;;;4919940;29;20455;-74
2023/09/26 09:58:50;;;;;;;990.88;823.35;;;;;;;;;;4921376;29;21006;-73
2023/09/26 10:01:26;;;;;;;994.45;828.50;;;;;;;;;;4918705;29;20433;-74
2023/09/26 10:03:54;;;;;;;994.53;828.40;;;;;;;;;;4911423;29;20519;-72
2023/09/26 10:06:21;;;;;;;987.50;823.47;;;;;;;;;;4904026;29;20451;-74
2023/09/26 10:08:49;;;;;;;988.53;823.65;;;;;;;;;;4922049;29;20447;-74
2023/09/26 10:11:20;;;;;;;981.97;812.33;;;;;;;;;;4923311;29;20445;-74
2023/09/26 10:13:48;;;;;;;984.50;828.97;;;;;;;;;;4916301;29;21022;-73
2023/09/26 10:16:17;;;;;;;984.38;825.78;;;;;;;;;;4921434;29;20441;-74
2023/09/26 10:18:45;;;;;;;982.53;827.47;;;;;;;;;;4922637;29;20467;-73
2023/09/26 10:21:30;;;;;;;992.25;837.00;;;;;;;;;;4915885;29;20528;-74
2023/09/26 10:24:12;;;;;;;1000.13;842.75;;;;;;;;;;4925269;29;20443;-74
2023/09/26 10:26:47;;;;;;;992.45;840.60;;;;;;;;;;4926344;29;20438;-74
2023/09/26 10:29:14;;;;;;;993.97;840.80;;;;;;;;;;4919039;29;20986;-75
2023/09/26 10:31:53;;;;;;;992.50;842.33;;;;;;;;;;4908122;29;20544;-74
2023/09/26 10:34:27;;;;;;;980.70;827.08;;;;;;;;;;4923936;29;20447;-73
2023/09/26 10:37:20;;;;;;;987.88;838.85;;;;;;;;;;4917892;29;20427;-74
2023/09/26 10:39:47;;;;;;;977.38;823.25;;;;;;;;;;4898372;29;20443;-73
2023/09/26 10:42:22;;;;;;;982.38;827.47;;;;;;;;;;4926473;29;20439;-74
2023/09/26 10:45:15;;;;;;;988.80;841.95;;;;;;;;;;4925349;29;20517;-74
2023/09/26 10:47:48;;;;;;;993.03;846.45;;;;;;;;;;4916502;29;20441;-73
2023/09/26 10:50:38;;;;;;;993.33;853.72;;;;;;;;;;4925222;29;20428;-74
2023/09/26 10:53:06;;;;;;;991.80;860.85;;;;;;;;;;4918896;29;20443;-74
2023/09/26 10:55:33;;;;;;;1003.27;870.33;;;;;;;;;;4914878;29;20504;-73
2023/09/26 10:58:01;;;;;;;1001.00;871.38;;;;;;;;;;4921808;29;20435;-74
2023/09/26 11:00:28;;;;;;;1010.45;882.08;;;;;;;;;;4921005;29;20480;-74
2023/09/26 11:02:57;;;;;;;999.92;865.45;;;;;;;;;;4924279;29;20444;-74
2023/09/26 11:05:45;;;;;;;1001.00;866.50;;;;;;;;;;4911913;29;21095;-74
2023/09/26 11:08:12;;;;;;;998.28;861.88;;;;;;;;;;4918565;29;20439;-75
2023/09/26 11:10:59;;;;;;;997.00;868.70;;;;;;;;;;4921287;29;20436;-74
2023/09/26 11:13:29;;;;;;;1000.05;878.70;;;;;;;;;;4921096;29;20631;-73
2023/09/26 11:15:57;;;;;;;998.47;864.60;;;;;;;;;;4924371;29;20491;-74
2023/09/26 11:18:24;;;;;;;995.13;872.13;;;;;;;;;;4925724;29;20474;-74
2023/09/26 11:20:54;;;;;;;993.28;864.95;;;;;;;;;;4924073;29;20562;-74
2023/09/26 11:23:39;;;;;;;1016.83;886.83;;;;;;;;;;4923980;29;20443;-75
2023/09/26 11:26:07;;;;;;;998.83;864.78;;;;;;;;;;4922009;29;20440;-74
2023/09/26 11:28:35;;;;;;;1001.78;884.75;;;;;;;;;;4907311;29;20443;-75
2023/09/26 11:31:02;;;;;;;1001.07;879.00;;;;;;;;;;4918722;29;20508;-75
2023/09/26 11:33:30;;;;;;;993.70;865.57;;;;;;;;;;4931334;29;20435;-74
2023/09/26 11:36:01;;;;;;;995.90;882.40;;;;;;;;;;4921334;29;20774;-76
2023/09/26 11:38:30;;;;;;;1008.63;896.92;;;;;;;;;;4917298;29;20445;-76
2023/09/26 11:40:57;;;;;;;994.97;868.58;;;;;;;;;;4928121;29;20477;-76
2023/09/26 11:43:27;;;;;;;998.15;871.05;;;;;;;;;;4921637;29;20435;-75
2023/09/26 11:46:04;;;;;;;987.92;852.78;;;;;;;;;;4927732;29;20451;-76
2023/09/26 11:48:31;;;;;;;988.10;847.97;;;;;;;;;;4922894;29;20919;-75
2023/09/26 11:50:59;;;;;;;973.72;838.55;;;;;;;;;;4928295;29;20522;-75
2023/09/26 11:53:29;;;;;;;979.03;844.42;;;;;;;;;;4921475;29;20600;-75
2023/09/26 11:55:58;;;;;;;983.50;847.88;;;;;;;;;;4922822;29;20842;-75
2023/09/26 11:58:25;;;;;;;978.85;842.35;;;;;;;;;;4924575;29;20800;-76
2023/09/26 12:00:52;;;;;;;986.80;860.88;;;;;;;;;;4911913;29;20474;-75
2023/09/26 12:03:19;;;;;;;976.08;835.15;;;;;;;;;;4925607;29;20522;-77
2023/09/26 12:05:47;;;;;;;978.15;836.45;;;;;;;;;;4931907;29;21213;-76
2023/09/26 12:08:14;;;;;;;976.20;833.40;;;;;;;;;;4926532;29;20469;-76
2023/09/26 12:10:44;;;;;;;978.80;828.40;;;;;;;;;;4931137;29;21058;-77
2023/09/26 12:13:14;;;;;;;981.77;841.80;;;;;;;;;;4932099;29;20435;-77
2023/09/26 12:15:41;;;;;;;971.47;840.03;;;;;;;;;;4927933;29;20454;-77
2023/09/26 12:18:09;;;;;;;968.83;828.95;;;;;;;;;;4926973;29;20967;-77
2023/09/26 12:20:37;;;;;;;977.20;839.88;;;;;;;;;;4925338;29;20450;-77
2023/09/26 12:23:05;;;;;;;980.53;845.88;;;;;;;;;;4925176;29;20443;-77
2023/09/26 12:25:32;;;;;;;990.53;858.28;;;;;;;;;;4928034;29;20447;-77
2023/09/26 12:27:59;;;;;;;987.72;861.58;;;;;;;;;;4930822;29;20524;-77
2023/09/26 12:30:27;;;;;;;988.05;858.22;;;;;;;;;;4926077;29;20551;-77
2023/09/26 12:32:55;;;;;;;999.95;884.35;;;;;;;;;;4930687;29;21275;-76
2023/09/26 12:35:22;;;;;;;987.88;863.22;;;;;;;;;;4925522;29;20452;-77
2023/09/26 12:37:49;;;;;;;991.00;871.17;;;;;;;;;;4931124;29;20523;-77
2023/09/26 12:40:16;;;;;;;986.13;871.42;;;;;;;;;;4925318;29;20974;-75
2023/09/26 12:42:44;;;;;;;985.58;863.72;;;;;;;;;;4929440;29;20562;-76
2023/09/26 12:45:11;;;;;;;979.60;859.40;;;;;;;;;;4931196;29;21099;-76
2023/09/26 12:47:41;;;;;;;975.08;860.53;;;;;;;;;;4930741;29;20997;-76
2023/09/26 12:50:15;;;;;;;969.17;846.45;;;;;;;;;;4924325;29;20506;-76
2023/09/26 12:52:48;;;;;;;961.13;832.00;;;;;;;;;;4924593;29;20508;-76
2023/09/26 12:55:20;;;;;;;962.88;835.58;;;;;;;;;;4918975;29;20901;-76
2023/09/26 12:57:48;;;;;;;956.15;825.40;;;;;;;;;;4927985;29;20433;-76
2023/09/26 13:00:25;;;;;;;969.25;842.15;;;;;;;;;;4919307;29;20546;-77
2023/09/26 13:02:52;;;;;;;957.50;826.30;;;;;;;;;;4919899;29;20511;-77
2023/09/26 13:05:20;;;;;;;962.47;826.80;;;;;;;;;;4907131;29;20454;-77
2023/09/26 13:07:48;;;;;;;957.03;826.25;;;;;;;;;;4926760;29;20949;-76
2023/09/26 13:10:15;;;;;;;958.08;825.60;;;;;;;;;;4929844;29;20443;-78
2023/09/26 13:12:42;;;;;;;962.37;833.53;;;;;;;;;;4922021;29;20487;-77
2023/09/26 13:15:12;;;;;;;963.03;833.35;;;;;;;;;;4926597;29;21111;-74
2023/09/26 13:17:39;;;;;;;965.17;836.53;;;;;;;;;;4926112;29;20435;-74
2023/09/26 13:20:10;;;;;;;957.08;831.53;;;;;;;;;;4930734;29;20435;-75
2023/09/26 13:22:42;;;;;;;959.27;828.13;;;;;;;;;;4898197;29;20515;-74
2023/09/26 13:25:09;;;;;;;961.17;833.67;;;;;;;;;;4924750;29;20448;-75
2023/09/26 13:27:36;;;;;;;972.05;844.30;;;;;;;;;;4920803;29;20504;-74
2023/09/26 13:30:04;;;;;;;981.08;857.20;;;;;;;;;;4923173;29;20440;-75
2023/09/26 13:32:34;;;;;;;984.40;873.60;;;;;;;;;;4921646;29;20444;-75
2023/09/26 13:35:04;;;;;;;994.50;884.42;;;;;;;;;;4909139;29;20445;-75
2023/09/26 13:37:32;;;;;;;983.67;872.15;;;;;;;;;;4919711;29;20450;-74
2023/09/26 13:40:04;;;;;;;987.47;878.00;;;;;;;;;;4924664;29;20496;-75
2023/09/26 13:42:31;;;;;;;980.75;867.28;;;;;;;;;;4913559;29;20532;-74
2023/09/26 13:45:01;;;;;;;988.38;878.63;;;;;;;;;;4928688;29;20557;-75
2023/09/26 13:47:29;;;;;;;990.30;880.50;;;;;;;;;;4911183;29;20444;-75
2023/09/26 13:49:59;;;;;;;981.35;863.53;;;;;;;;;;4923123;29;20902;-75
2023/09/26 13:52:26;;;;;;;979.55;866.05;;;;;;;;;;4927805;29;20438;-75
2023/09/26 13:54:54;;;;;;;1001.35;891.70;;;;;;;;;;4929361;29;20435;-75
2023/09/26 13:57:22;;;;;;;958.35;837.03;;;;;;;;;;4922040;29;20435;-75
2023/09/26 13:59:58;;;;;;;978.25;869.97;;;;;;;;;;4897293;29;20440;-75
2023/09/26 14:02:25;;;;;;;967.40;851.90;;;;;;;;;;4909999;29;20450;-75
2023/09/26 14:04:52;;;;;;;958.15;840.63;;;;;;;;;;4919365;29;20470;-75
2023/09/26 14:07:39;;;;;;;972.25;864.65;;;;;;;;;;4924732;29;20423;-75
2023/09/26 14:10:07;;;;;;;957.90;840.97;;;;;;;;;;4923930;29;20447;-75
2023/09/26 14:12:34;;;;;;;966.63;859.05;;;;;;;;;;4921566;29;20828;-74
2023/09/26 14:15:07;;;;;;;973.75;865.83;;;;;;;;;;4925517;29;20946;-77
2023/09/26 14:17:35;;;;;;;968.55;858.78;;;;;;;;;;4928709;29;21021;-77
2023/09/26 14:20:07;;;;;;;960.97;843.15;;;;;;;;;;4912832;29;20470;-77
2023/09/26 14:22:36;;;;;;;949.50;827.05;;;;;;;;;;4927692;29;20443;-77
2023/09/26 14:25:04;;;;;;;943.35;812.38;;;;;;;;;;4924291;29;20477;-76
2023/09/26 14:27:31;;;;;;;952.92;832.45;;;;;;;;;;4922232;29;20530;-77
2023/09/26 14:30:02;;;;;;;16.77;12.70;;;;;;;;;;4923101;29;20527;-78
2023/09/26 14:32:36;;;;;;;1.60;1.50;;;;;;;;;;4926911;29;20460;-77
2023/09/26 14:35:03;;;;;;;2.67;1.83;;;;;;;;;;4923075;29;20439;-77
2023/09/26 14:37:31;;;;;;;2.33;2.13;;;;;;;;;;4928497;29;20916;-76
2023/09/26 14:40:08;;;;;;;3.78;2.17;;;;;;;;;;4919009;29;20447;-77
2023/09/26 14:42:36;;;;;;;2.83;1.90;;;;;;;;;;4919966;29;20436;-77
2023/09/26 14:45:04;;;;;;;2.83;1.90;;;;;;;;;;4918867;29;20533;-77
2023/09/26 14:47:31;;;;;;;2.38;2.00;;;;;;;;;;4923892;29;20519;-77
2023/09/26 14:49:58;;;;;;;1.90;1.80;;;;;;;;;;4923857;29;20445;-77
2023/09/26 14:52:25;;;;;;;2.47;1.70;;;;;;;;;;4924584;29;20891;-77
2023/09/26 14:54:55;;;;;;;2.08;1.90;;;;;;;;;;4924243;29;20433;-77
2023/09/26 14:57:25;;;;;;;2.10;2.00;;;;;;;;;;4933795;29;20443;-78
2023/09/26 14:59:52;;;;;;;2.53;2.10;;;;;;;;;;4932863;29;20475;-78
2023/09/26 15:02:22;;;;;;;2.33;1.73;;;;;;;;;;4928563;29;20512;-78
2023/09/26 15:04:50;;;;;;;1.83;1.70;;;;;;;;;;4932833;29;20554;-79
2023/09/26 15:07:17;;;;;;;2.15;2.05;;;;;;;;;;4929403;29;20515;-79
2023/09/26 15:09:44;;;;;;;2.25;2.13;;;;;;;;;;4935476;29;20443;-79
2023/09/26 15:12:14;;;;;;;1.80;1.70;;;;;;;;;;4920894;29;20440;-79
2023/09/26 15:14:42;;;;;;;2.10;2.00;;;;;;;;;;4927721;29;20443;-78
2023/09/26 15:17:09;;;;;;;2.00;1.88;;;;;;;;;;4932332;29;20913;-78
2023/09/26 15:19:36;;;;;;;1.92;1.75;;;;;;;;;;4933831;29;20534;-77
2023/09/26 15:22:03;;;;;;;1.85;1.83;;;;;;;;;;4930587;29;20525;-79
2023/09/26 15:24:31;;;;;;;3.63;2.10;;;;;;;;;;4931599;29;20450;-79
2023/09/26 15:26:58;;;;;;;1.70;1.60;;;;;;;;;;4932961;29;20495;-79
2023/09/26 15:29:26;;;;;;;1.73;1.63;;;;;;;;;;4934434;29;20929;-79
2023/09/26 15:31:53;;;;;;;2.60;1.80;;;;;;;;;;4926413;29;20442;-78
2023/09/26 15:34:34;;;;;;;1.90;1.80;;;;;;;;;;4919089;29;20455;-78
2023/09/26 15:37:07;;;;;;;1.85;1.75;;;;;;;;;;4924038;29;20861;-79
2023/09/26 15:39:35;;;;;;;2.00;1.90;;;;;;;;;;4931287;29;20509;-78
2023/09/26 15:42:02;;;;;;;2.00;1.88;;;;;;;;;;4926492;29;20506;-78
2023/09/26 15:44:39;;;;;;;2.28;1.98;;;;;;;;;;4928413;29;20447;-78
2023/09/26 15:47:07;;;;;;;2.28;2.05;;;;;;;;;;4924712;29;20445;-78
2023/09/26 15:49:36;;;;;;;1.83;1.73;;;;;;;;;;4933242;29;20435;-78
2023/09/26 15:52:17;;;;;;;2.92;1.95;;;;;;;;;;4925979;29;21046;-78
2023/09/26 15:54:47;;;;;;;1.83;1.73;;;;;;;;;;4925966;29;20466;-79
2023/09/26 15:57:14;;;;;;;4.05;2.00;;;;;;;;;;4932733;29;20450;-78
2023/09/26 15:59:42;;;;;;;1.80;1.70;;;;;;;;;;4917007;29;20521;-78
2023/09/26 16:02:09;;;;;;;2.00;1.75;;;;;;;;;;4914011;29;20525;-78
2023/09/26 16:04:37;;;;;;;1.63;1.52;;;;;;;;;;4931668;29;20964;-78
2023/09/26 16:07:06;;;;;;;2.00;1.80;;;;;;;;;;4926640;29;20439;-75
2023/09/26 16:09:33;;;;;;;2.95;1.58;;;;;;;;;;4932780;29;20435;-76
2023/09/26 16:12:03;;;;;;;1.83;1.70;;;;;;;;;;4923614;29;20473;-75
2023/09/26 16:14:30;;;;;;;2.22;1.85;;;;;;;;;;4924551;29;20469;-75
2023/09/26 16:17:00;;;;;;;1.70;1.60;;;;;;;;;;4923695;29;20569;-77
2023/09/26 16:19:35;;;;;;;1.90;1.80;;;;;;;;;;4922417;29;20533;-78
2023/09/26 16:22:02;;;;;;;3.25;1.80;;;;;;;;;;4922572;29;20445;-78
2023/09/26 16:24:29;;;;;;;1.70;1.60;;;;;;;;;;4925680;29;20471;-78
2023/09/26 16:26:57;;;;;;;2.40;2.20;;;;;;;;;;4928665;29;20445;-78
2023/09/26 16:29:24;;;;;;;2.85;1.70;;;;;;;;;;4916055;29;20534;-75
2023/09/26 16:31:51;;;;;;;2.50;2.30;;;;;;;;;;4929632;29;20444;-75
2023/09/26 16:34:19;;;;;;;2.90;1.88;;;;;;;;;;4925783;29;20444;-75
2023/09/26 16:36:46;;;;;;;2.00;1.87;;;;;;;;;;4916069;29;20451;-74
2023/09/26 16:39:14;;;;;;;2.40;2.00;;;;;;;;;;4924765;29;20999;-75
2023/09/26 16:41:41;;;;;;;2.58;2.40;;;;;;;;;;4916759;29;20461;-75
2023/09/26 16:44:08;;;;;;;5.05;3.35;;;;;;;;;;4923651;29;20451;-75
2023/09/26 16:46:35;;;;;;;3.47;2.20;;;;;;;;;;4923020;29;20448;-75
2023/09/26 16:49:03;;;;;;;2.47;2.10;;;;;;;;;;4913038;29;20472;-75
2023/09/26 16:51:35;;;;;;;2.83;2.37;;;;;;;;;;4928240;29;20435;-75
2023/09/26 16:54:02;;;;;;;3.45;2.88;;;;;;;;;;4915368;29;21129;-75
2023/09/26 16:56:29;;;;;;;3.72;3.40;;;;;;;;;;4914443;29;20447;-75
2023/09/26 16:58:57;;;;;;;3.97;3.08;;;;;;;;;;4911133;29;20447;-75
2023/09/26 17:01:27;;;;;;;7.93;3.30;;;;;;;;;;4929947;29;20443;-74
2023/09/26 17:03:54;;;;;;;5.25;3.70;;;;;;;;;;4926769;29;20443;-74
2023/09/26 17:06:21;;;;;;;5.03;2.65;;;;;;;;;;4913138;29;20445;-74
2023/09/26 17:08:50;;;;;;;5.30;2.90;;;;;;;;;;4927487;29;20447;-74
2023/09/26 17:11:23;;;;;;;4.45;2.67;;;;;;;;;;4925445;29;20843;-74